Time;durP1;ratioP1;P1;durP2;ratioP2;P2;SDS_P1;SDS_P2;PMS_P1;PMS_P2;Temp;Humidity;BMP_temperature;BMP_pressure;BME280_temperature;BME280_humidity;BME280_pressure;Samples;Min_cycle;Max_cycle;Signal;HPM_P1;HPM_P2
2021/11/03 00:02:30;;;;;;;18.25;13.75;;;;;;;5.33;100.00;99986.25;5267205;28;20033;-69
2021/11/03 00:05:02;;;;;;;16.48;13.40;;;;;;;5.32;100.00;99989.81;5265325;28;20375;-69
2021/11/03 00:07:34;;;;;;;16.52;12.35;;;;;;;5.34;100.00;99993.13;5266084;28;20140;-69
2021/11/03 00:10:08;;;;;;;21.38;12.63;;;;;;;5.28;100.00;99997.97;5268029;28;20165;-69
2021/11/03 00:12:39;;;;;;;17.90;13.23;;;;;;;5.19;100.00;99993.44;5267580;28;20032;-69
2021/11/03 00:15:11;;;;;;;16.92;13.63;;;;;;;5.23;100.00;99989.72;5265601;28;20078;-69
2021/11/03 00:17:43;;;;;;;16.35;13.18;;;;;;;5.18;100.00;99990.03;5265653;28;20098;-68
2021/11/03 00:20:14;;;;;;;17.47;14.27;;;;;;;5.13;100.00;99992.16;5267951;28;20020;-69
2021/11/03 00:22:46;;;;;;;15.50;12.98;;;;;;;5.08;100.00;99992.50;5267598;28;20562;-70
2021/11/03 00:25:17;;;;;;;16.25;13.40;;;;;;;5.07;100.00;99996.03;5266078;28;20379;-69
2021/11/03 00:27:48;;;;;;;16.70;12.30;;;;;;;4.97;100.00;99989.91;5265900;28;20425;-69
2021/11/03 00:30:20;;;;;;;15.90;13.02;;;;;;;4.94;100.00;99984.94;5269150;28;20081;-68
2021/11/03 00:32:51;;;;;;;16.83;12.23;;;;;;;4.92;100.00;99997.19;5265788;28;20055;-69
2021/11/03 00:35:22;;;;;;;14.75;13.10;;;;;;;4.93;100.00;99995.44;5268746;28;20660;-69
2021/11/03 00:37:53;;;;;;;14.77;11.85;;;;;;;4.93;100.00;100003.22;5267553;28;20445;-69
2021/11/03 00:40:25;;;;;;;16.00;12.70;;;;;;;4.79;100.00;100002.47;5267354;28;20025;-69
2021/11/03 00:42:56;;;;;;;14.48;12.30;;;;;;;4.81;100.00;99994.56;5266963;28;20029;-69
2021/11/03 00:45:28;;;;;;;15.13;12.13;;;;;;;4.74;100.00;99986.44;5265505;28;20077;-69
2021/11/03 00:47:59;;;;;;;15.35;12.88;;;;;;;4.75;100.00;99995.03;5265264;28;20044;-69
2021/11/03 00:50:31;;;;;;;14.60;12.88;;;;;;;4.65;100.00;99989.69;5262983;28;20036;-69
2021/11/03 00:53:03;;;;;;;14.52;11.95;;;;;;;4.67;100.00;100002.56;5265049;28;20048;-68
2021/11/03 00:55:34;;;;;;;14.75;11.45;;;;;;;4.60;100.00;99994.41;5264743;28;20025;-69
2021/11/03 00:58:05;;;;;;;15.88;12.32;;;;;;;4.64;100.00;99991.44;5265721;28;20020;-69
2021/11/03 01:00:37;;;;;;;18.67;13.00;;;;;;;4.64;100.00;99995.81;5264891;28;20020;-69
2021/11/03 01:03:09;;;;;;;14.73;11.40;;;;;;;4.58;100.00;100002.31;5263149;28;20107;-70
2021/11/03 01:05:40;;;;;;;15.90;12.07;;;;;;;4.57;100.00;99987.66;5268077;28;20608;-69
2021/11/03 01:08:13;;;;;;;13.98;11.88;;;;;;;4.51;100.00;99988.13;5265205;28;20036;-69
2021/11/03 01:10:47;;;;;;;16.33;11.60;;;;;;;4.54;100.00;99982.69;5266484;28;20060;-69
2021/11/03 01:13:22;;;;;;;15.50;12.27;;;;;;;4.46;100.00;99979.00;5265420;28;20029;-69
2021/11/03 01:15:57;;;;;;;14.75;12.80;;;;;;;4.36;100.00;99974.50;5265649;28;20052;-69
2021/11/03 01:18:31;;;;;;;14.20;11.80;;;;;;;4.43;100.00;99979.22;5266247;28;20059;-69
2021/11/03 01:21:03;;;;;;;14.65;12.10;;;;;;;4.31;100.00;99975.75;5262779;28;20033;-69
2021/11/03 01:23:34;;;;;;;13.60;11.18;;;;;;;4.32;100.00;99980.03;5265012;28;20039;-69
2021/11/03 01:26:05;;;;;;;15.25;12.68;;;;;;;4.24;100.00;99979.72;5265762;28;20024;-69
2021/11/03 01:28:37;;;;;;;16.23;12.27;;;;;;;4.26;100.00;99977.88;5267480;28;20093;-69
2021/11/03 01:31:08;;;;;;;15.55;11.35;;;;;;;4.21;100.00;99965.25;5266729;28;20036;-69
2021/11/03 01:33:40;;;;;;;16.75;11.40;;;;;;;4.14;100.00;99971.81;5264362;28;20024;-69
2021/11/03 01:36:12;;;;;;;12.98;11.65;;;;;;;4.06;100.00;99967.19;5265043;28;20025;-69
2021/11/03 01:38:44;;;;;;;15.23;12.80;;;;;;;4.13;100.00;99978.75;5264499;28;20037;-69
2021/11/03 01:41:15;;;;;;;12.75;11.45;;;;;;;4.15;100.00;99974.28;5265521;28;20027;-69
2021/11/03 01:43:50;;;;;;;13.10;11.50;;;;;;;4.17;100.00;99970.75;5265706;28;20039;-69
2021/11/03 01:46:27;;;;;;;12.95;11.30;;;;;;;4.13;100.00;99967.56;5263094;28;20537;-69
2021/11/03 01:49:20;;;;;;;13.05;11.65;;;;;;;4.29;100.00;99969.88;5266308;28;20055;-69
2021/11/03 01:51:59;;;;;;;15.18;11.85;;;;;;;4.18;100.00;99968.06;5262893;28;20525;-69
2021/11/03 01:54:49;;;;;;;17.10;12.15;;;;;;;4.18;100.00;99972.41;5266200;28;20028;-71
2021/11/03 01:57:27;;;;;;;12.60;11.30;;;;;;;4.08;100.00;99967.88;5265858;28;20037;-69
2021/11/03 02:00:05;;;;;;;14.88;11.68;;;;;;;3.97;100.00;99964.41;5264647;28;20032;-70
2021/11/03 02:02:36;;;;;;;15.82;11.65;;;;;;;3.94;100.00;99956.84;5263787;28;20040;-69
2021/11/03 02:05:10;;;;;;;14.60;11.90;;;;;;;3.93;100.00;99953.44;5264002;28;20474;-70
2021/11/03 02:07:42;;;;;;;15.82;11.57;;;;;;;3.87;100.00;99957.28;5266955;28;20243;-69
2021/11/03 02:10:14;;;;;;;14.57;12.82;;;;;;;3.87;100.00;99951.28;5264879;28;20028;-69
2021/11/03 02:12:46;;;;;;;13.80;12.40;;;;;;;3.89;100.00;99962.34;5263544;28;20041;-70
2021/11/03 02:15:17;;;;;;;15.73;12.15;;;;;;;3.87;100.00;99957.28;5263109;28;20167;-69
2021/11/03 02:17:49;;;;;;;12.48;11.15;;;;;;;3.92;100.00;99953.53;5263989;28;20021;-69
2021/11/03 02:20:23;;;;;;;13.65;11.60;;;;;;;3.90;100.00;99962.28;5264979;28;20020;-69
2021/11/03 02:23:12;;;;;;;13.10;10.98;;;;;;;3.95;100.00;99959.34;5263686;28;20029;-69
2021/11/03 02:26:17;;;;;;;13.93;11.55;;;;;;;4.06;100.00;99967.19;5264930;28;20136;-69
2021/11/03 02:28:49;;;;;;;14.75;10.52;;;;;;;3.81;100.00;99960.31;5264269;28;20106;-69
2021/11/03 02:31:49;;;;;;;15.27;11.95;;;;;;;4.03;100.00;99951.00;5263629;28;20448;-69
2021/11/03 02:34:24;;;;;;;14.05;11.02;;;;;;;3.84;100.00;99954.09;5262351;28;20033;-69
2021/11/03 02:37:03;;;;;;;15.70;10.98;;;;;;;3.91;100.00;99952.72;5265501;28;20090;-69
2021/11/03 02:39:40;;;;;;;13.82;11.27;;;;;;;3.85;100.00;99953.16;5264302;28;20067;-69
2021/11/03 02:42:13;;;;;;;11.70;10.30;;;;;;;3.78;100.00;99952.75;5263317;28;20390;-69
2021/11/03 02:44:47;;;;;;;13.57;11.13;;;;;;;3.70;100.00;99952.47;5262782;28;20065;-69
2021/11/03 02:47:18;;;;;;;14.75;11.27;;;;;;;3.67;100.00;99950.09;5263459;28;20068;-69
2021/11/03 02:49:49;;;;;;;12.98;11.25;;;;;;;3.74;100.00;99943.53;5263880;28;20033;-70
2021/11/03 02:52:23;;;;;;;13.93;11.70;;;;;;;3.68;100.00;99949.16;5260718;28;20049;-69
2021/11/03 02:54:54;;;;;;;13.52;11.32;;;;;;;3.69;100.00;99947.41;5265535;28;20087;-69
2021/11/03 02:57:26;;;;;;;14.07;11.85;;;;;;;3.69;100.00;99943.06;5264036;28;20486;-69
2021/11/03 02:59:58;;;;;;;14.45;10.75;;;;;;;3.60;100.00;99944.53;5263727;28;20047;-69
2021/11/03 03:02:29;;;;;;;12.40;11.10;;;;;;;3.62;100.00;99947.00;5259761;28;20115;-69
2021/11/03 03:05:01;;;;;;;14.10;10.98;;;;;;;3.69;100.00;99948.22;5266942;28;20036;-69
2021/11/03 03:07:32;;;;;;;12.88;10.80;;;;;;;3.66;100.00;99951.03;5266274;28;20463;-69
2021/11/03 03:10:06;;;;;;;12.85;10.60;;;;;;;3.65;100.00;99947.63;5268467;28;20024;-69
2021/11/03 03:12:37;;;;;;;15.00;10.82;;;;;;;3.59;100.00;99955.81;5269760;28;20096;-69
2021/11/03 03:15:08;;;;;;;12.52;10.98;;;;;;;3.64;100.00;99971.88;5266971;28;20103;-69
2021/11/03 03:17:40;;;;;;;14.93;11.77;;;;;;;3.64;100.00;99978.81;5267602;28;20025;-69
2021/11/03 03:20:11;;;;;;;12.73;11.38;;;;;;;3.70;100.00;99980.97;5263730;28;20032;-69
2021/11/03 03:22:42;;;;;;;13.48;10.43;;;;;;;3.62;100.00;99971.13;5266893;28;20402;-70
2021/11/03 03:25:14;;;;;;;12.88;10.30;;;;;;;3.69;100.00;99971.53;5269077;28;20021;-69
2021/11/03 03:27:45;;;;;;;13.35;10.40;;;;;;;3.63;100.00;99977.13;5267948;28;20077;-69
2021/11/03 03:30:16;;;;;;;13.18;10.48;;;;;;;3.65;100.00;99973.53;5265393;28;20021;-69
2021/11/03 03:32:48;;;;;;;12.60;10.23;;;;;;;3.61;100.00;99953.94;5268542;28;20059;-69
2021/11/03 03:35:20;;;;;;;13.68;10.45;;;;;;;3.54;100.00;99951.91;5267831;28;20086;-69
2021/11/03 03:37:51;;;;;;;11.43;9.95;;;;;;;3.60;100.00;99952.31;5266708;28;20036;-69
2021/11/03 03:40:22;;;;;;;14.20;10.50;;;;;;;3.57;100.00;99955.09;5267307;28;20060;-69
2021/11/03 03:42:53;;;;;;;13.65;10.18;;;;;;;3.56;100.00;99960.38;5268345;28;20120;-69
2021/11/03 03:45:25;;;;;;;12.95;10.77;;;;;;;3.56;100.00;99963.81;5266633;28;20025;-69
2021/11/03 03:47:56;;;;;;;13.52;10.90;;;;;;;3.56;100.00;99965.56;5269095;28;20044;-69
2021/11/03 03:50:28;;;;;;;13.13;10.23;;;;;;;3.61;100.00;99964.31;5266590;28;20033;-69
2021/11/03 03:52:59;;;;;;;12.73;9.93;;;;;;;3.61;100.00;99966.91;5267892;28;20048;-69
2021/11/03 03:55:31;;;;;;;12.00;10.20;;;;;;;3.55;100.00;99963.91;5267686;28;20039;-70
2021/11/03 03:58:02;;;;;;;10.73;9.63;;;;;;;3.58;100.00;99967.09;5265443;28;20048;-69
2021/11/03 04:00:35;;;;;;;13.50;9.68;;;;;;;3.54;100.00;99976.03;5263016;28;20122;-69
2021/11/03 04:03:06;;;;;;;13.40;10.20;;;;;;;3.48;100.00;99975.63;5267235;28;20021;-69
2021/11/03 04:05:37;;;;;;;11.98;9.77;;;;;;;3.50;100.00;99974.59;5265554;28;20029;-69
2021/11/03 04:08:09;;;;;;;11.32;9.50;;;;;;;3.56;100.00;99968.13;5265797;28;20044;-69
2021/11/03 04:10:43;;;;;;;13.38;9.77;;;;;;;3.42;100.00;99974.28;5266582;28;20039;-69
2021/11/03 04:13:14;;;;;;;11.80;9.13;;;;;;;3.43;100.00;99981.13;5265150;28;20029;-68
2021/11/03 04:15:47;;;;;;;10.48;9.30;;;;;;;3.45;100.00;99987.03;5263437;28;20028;-68
2021/11/03 04:18:19;;;;;;;10.30;9.20;;;;;;;3.49;100.00;99993.66;5265234;28;20028;-68
2021/11/03 04:20:50;;;;;;;12.75;10.15;;;;;;;3.52;100.00;100003.78;5268375;28;21068;-69
2021/11/03 04:23:23;;;;;;;13.50;10.27;;;;;;;3.48;100.00;99994.56;5265115;28;20024;-69
2021/11/03 04:25:55;;;;;;;12.52;10.30;;;;;;;3.50;100.00;99999.66;5262905;28;20036;-69
2021/11/03 04:28:26;;;;;;;13.05;10.23;;;;;;;3.47;100.00;100003.28;5267660;28;20036;-69
2021/11/03 04:30:58;;;;;;;11.40;10.20;;;;;;;3.48;100.00;99993.75;5265675;28;20020;-69
2021/11/03 04:33:29;;;;;;;14.65;11.43;;;;;;;3.52;100.00;100000.38;5267666;28;20024;-69
2021/11/03 04:36:00;;;;;;;13.02;11.15;;;;;;;3.56;100.00;100000.06;5263712;28;20027;-69
2021/11/03 04:38:32;;;;;;;12.57;10.63;;;;;;;3.57;100.00;100000.91;5265803;28;20032;-70
2021/11/03 04:41:03;;;;;;;11.65;9.85;;;;;;;3.58;100.00;99994.78;5267754;28;20502;-69
2021/11/03 04:43:35;;;;;;;14.00;10.70;;;;;;;3.53;100.00;100004.63;5266497;28;20410;-69
2021/11/03 04:46:06;;;;;;;16.38;11.13;;;;;;;3.55;100.00;99992.38;5262398;28;20490;-69
2021/11/03 04:48:37;;;;;;;13.70;9.95;;;;;;;3.62;100.00;99994.44;5265512;28;20537;-69
2021/11/03 04:51:08;;;;;;;13.02;10.38;;;;;;;3.57;100.00;100001.72;5265912;28;20040;-69
2021/11/03 04:53:40;;;;;;;12.05;10.18;;;;;;;3.57;100.00;100006.91;5265001;28;20111;-69
2021/11/03 04:56:13;;;;;;;12.65;11.02;;;;;;;3.57;100.00;100008.66;5263415;28;20130;-68
2021/11/03 04:58:47;;;;;;;11.93;10.60;;;;;;;3.57;100.00;100004.31;5262850;28;20037;-69
2021/11/03 05:01:21;;;;;;;12.65;10.90;;;;;;;3.58;100.00;100002.53;5260621;28;20044;-69
2021/11/03 05:03:54;;;;;;;12.15;10.00;;;;;;;3.60;100.00;100003.28;5263956;28;20479;-69
2021/11/03 05:06:28;;;;;;;12.85;11.40;;;;;;;3.54;100.00;99995.91;5264174;28;20040;-69
2021/11/03 05:09:00;;;;;;;11.98;10.45;;;;;;;3.57;100.00;100004.31;5263186;28;20024;-69
2021/11/03 05:11:31;;;;;;;12.85;10.15;;;;;;;3.62;100.00;100014.34;5266465;28;20025;-69
2021/11/03 05:14:03;;;;;;;15.57;10.15;;;;;;;3.53;100.00;100012.41;5262329;28;20020;-68
2021/11/03 05:16:35;;;;;;;11.15;9.77;;;;;;;3.56;100.00;100013.03;5263973;28;20029;-69
2021/11/03 05:19:09;;;;;;;12.30;10.05;;;;;;;3.52;100.00;100003.78;5264415;28;20491;-69
2021/11/03 05:21:40;;;;;;;;;;;;;;;3.98;100.00;100003.19;5265530;28;20028;-69
2021/11/03 05:24:11;;;;;;;10.75;9.25;;;;;;;3.54;100.00;100014.06;5264543;28;20301;-69
2021/11/03 05:26:43;;;;;;;10.98;9.60;;;;;;;3.56;100.00;100005.25;5261844;28;20039;-69
2021/11/03 05:29:15;;;;;;;13.38;9.93;;;;;;;3.59;100.00;100014.56;5266715;28;20023;-69
2021/11/03 05:31:46;;;;;;;14.23;10.70;;;;;;;3.55;100.00;99998.41;5265535;28;20086;-69
2021/11/03 05:34:18;;;;;;;11.52;9.93;;;;;;;3.58;100.00;99997.38;5263682;28;20492;-69
2021/11/03 05:36:51;;;;;;;12.50;10.38;;;;;;;3.57;100.00;100000.91;5265167;28;20021;-69
2021/11/03 05:39:22;;;;;;;11.43;10.17;;;;;;;3.55;100.00;100000.97;5265438;28;20060;-69
2021/11/03 05:41:54;;;;;;;14.70;10.10;;;;;;;3.55;100.00;100003.56;5263354;28;20028;-69
2021/11/03 05:44:25;;;;;;;11.48;10.20;;;;;;;3.48;100.00;99996.34;5263238;28;20086;-69
2021/11/03 05:46:57;;;;;;;11.98;10.40;;;;;;;3.57;100.00;100011.25;5262822;28;20027;-68
2021/11/03 05:49:31;;;;;;;11.85;10.43;;;;;;;3.58;100.00;100003.38;5267047;28;20020;-68
2021/11/03 05:52:05;;;;;;;12.23;10.55;;;;;;;3.53;100.00;100002.88;5266032;28;20076;-69
2021/11/03 05:54:36;;;;;;;;;;;;;;;3.96;100.00;100001.63;5265077;28;20039;-69
2021/11/03 05:57:08;;;;;;;13.07;10.03;;;;;;;3.62;100.00;99997.03;5261148;28;20355;-70
2021/11/03 05:59:39;;;;;;;11.98;10.77;;;;;;;3.60;100.00;99992.91;5267742;28;20038;-69
2021/11/03 06:02:10;;;;;;;13.85;10.38;;;;;;;3.61;100.00;99990.22;5261785;28;20036;-69
2021/11/03 06:04:42;;;;;;;11.30;9.82;;;;;;;3.60;100.00;99991.16;5262307;28;20478;-69
2021/11/03 06:07:14;;;;;;;14.18;9.82;;;;;;;3.63;100.00;99993.50;5267315;28;20053;-68
2021/11/03 06:09:45;;;;;;;11.95;10.57;;;;;;;3.64;100.00;99994.34;5261998;28;20493;-68
2021/11/03 06:12:17;;;;;;;12.02;10.13;;;;;;;3.60;100.00;99998.09;5262723;28;20805;-69
2021/11/03 06:14:48;;;;;;;11.65;9.73;;;;;;;3.66;100.00;99987.28;5264384;28;20106;-69
2021/11/03 06:17:19;;;;;;;10.57;9.13;;;;;;;3.61;100.00;99995.38;5261855;28;20036;-69
2021/11/03 06:19:50;;;;;;;11.52;10.13;;;;;;;3.55;100.00;99998.41;5261448;28;20075;-69
2021/11/03 06:22:22;;;;;;;10.73;9.57;;;;;;;3.54;100.00;99996.75;5263984;28;20023;-69
2021/11/03 06:24:54;;;;;;;11.98;10.10;;;;;;;3.61;100.00;99997.16;5262424;28;20118;-69
2021/11/03 06:27:25;;;;;;;13.07;10.32;;;;;;;3.57;100.00;99996.53;5264717;28;20025;-69
2021/11/03 06:29:57;;;;;;;16.63;11.60;;;;;;;3.60;100.00;99998.91;5264025;28;20028;-69
2021/11/03 06:32:28;;;;;;;13.15;10.77;;;;;;;3.57;100.00;100009.50;5261573;28;20078;-69
2021/11/03 06:34:59;;;;;;;13.82;11.45;;;;;;;3.58;100.00;100003.38;5263631;28;20062;-69
2021/11/03 06:37:31;;;;;;;14.93;11.25;;;;;;;3.60;100.00;100004.09;5263800;28;20032;-69
2021/11/03 06:40:10;;;;;;;13.93;10.43;;;;;;;3.70;100.00;100000.88;5268325;28;20550;-68
2021/11/03 06:42:41;;;;;;;12.43;10.60;;;;;;;3.59;100.00;100006.78;5271418;28;20103;-69
2021/11/03 06:45:15;;;;;;;12.13;9.63;;;;;;;3.60;100.00;100009.28;5271913;28;20021;-68
2021/11/03 06:47:48;;;;;;;13.50;11.95;;;;;;;3.56;100.00;100012.16;5269212;28;20037;-68
2021/11/03 06:50:24;;;;;;;14.73;11.65;;;;;;;3.62;100.00;100010.00;5262130;28;20108;-69
2021/11/03 06:52:57;;;;;;;15.25;11.98;;;;;;;3.60;100.00;100016.22;5264231;28;20098;-68
2021/11/03 06:55:29;;;;;;;13.85;11.70;;;;;;;3.62;100.00;100007.41;5266861;28;20036;-68
2021/11/03 06:58:01;;;;;;;14.10;12.02;;;;;;;3.64;100.00;100005.53;5265012;28;20466;-70
2021/11/03 07:00:37;;;;;;;16.42;10.90;;;;;;;3.69;100.00;100009.56;5268700;28;20032;-69
2021/11/03 07:03:08;;;;;;;13.13;11.43;;;;;;;3.61;100.00;100004.94;5264616;28;20025;-69
2021/11/03 07:05:43;;;;;;;13.32;11.18;;;;;;;3.65;100.00;100003.78;5266069;28;20505;-68
2021/11/03 07:08:17;;;;;;;14.88;11.30;;;;;;;3.62;100.00;100009.16;5266986;28;20025;-69
2021/11/03 07:10:51;;;;;;;16.80;11.85;;;;;;;3.63;100.00;100009.03;5263570;28;20029;-69
2021/11/03 07:13:23;;;;;;;14.23;11.57;;;;;;;3.65;100.00;100009.78;5266683;28;20273;-69
2021/11/03 07:15:55;;;;;;;17.73;11.50;;;;;;;3.70;100.00;99996.50;5266703;28;20103;-69
2021/11/03 07:18:27;;;;;;;15.32;11.02;;;;;;;3.77;100.00;100002.09;5267323;28;20416;-69
2021/11/03 07:20:58;;;;;;;17.05;11.40;;;;;;;3.72;100.00;100007.59;5258387;28;20021;-69
2021/11/03 07:23:29;;;;;;;14.43;11.32;;;;;;;3.69;100.00;99994.84;5265292;28;20028;-69
2021/11/03 07:26:01;;;;;;;18.30;13.20;;;;;;;3.73;100.00;100011.00;5268436;28;20068;-69
2021/11/03 07:28:32;;;;;;;15.40;13.02;;;;;;;3.75;100.00;100001.34;5265939;28;20049;-69
2021/11/03 07:31:05;;;;;;;17.25;13.63;;;;;;;3.78;100.00;100006.31;5266596;28;20023;-69
2021/11/03 07:33:37;;;;;;;16.27;13.20;;;;;;;3.83;100.00;100002.50;5269345;28;20024;-69
2021/11/03 07:36:13;;;;;;;18.60;13.90;;;;;;;3.86;100.00;100004.88;5268613;28;20060;-69
2021/11/03 07:38:44;;;;;;;18.02;13.55;;;;;;;3.83;100.00;99997.31;5265487;28;20039;-69
2021/11/03 07:41:15;;;;;;;21.70;15.65;;;;;;;3.83;100.00;100001.69;5262740;28;20029;-69
2021/11/03 07:43:47;;;;;;;19.52;14.65;;;;;;;3.87;100.00;100000.53;5256180;28;20056;-69
2021/11/03 07:46:19;;;;;;;18.15;13.80;;;;;;;3.92;100.00;99998.41;5261453;28;20401;-69
2021/11/03 07:48:50;;;;;;;17.73;13.57;;;;;;;3.96;100.00;100005.03;5265987;28;20102;-69
2021/11/03 07:51:22;;;;;;;18.77;13.18;;;;;;;3.94;100.00;100013.84;5263463;28;20075;-69
2021/11/03 07:53:58;;;;;;;15.48;11.82;;;;;;;3.93;100.00;100012.19;5264724;28;20035;-69
2021/11/03 07:56:34;;;;;;;16.10;12.05;;;;;;;3.99;100.00;100006.59;5265986;28;20398;-69
2021/11/03 07:59:06;;;;;;;16.98;12.63;;;;;;;3.94;100.00;100006.94;5265168;28;20040;-69
2021/11/03 08:01:37;;;;;;;16.88;12.10;;;;;;;3.99;100.00;100006.59;5263549;28;20502;-69
2021/11/03 08:04:09;;;;;;;16.80;12.43;;;;;;;4.01;100.00;100013.31;5266524;28;20025;-69
2021/11/03 08:06:41;;;;;;;15.32;11.93;;;;;;;4.08;100.00;100011.13;5265128;28;20036;-69
2021/11/03 08:09:12;;;;;;;14.32;12.73;;;;;;;4.11;100.00;100021.28;5268510;28;20449;-68
2021/11/03 08:11:51;;;;;;;19.65;13.75;;;;;;;4.19;100.00;100016.38;5264744;28;20035;-69
2021/11/03 08:14:30;;;;;;;16.50;13.43;;;;;;;4.30;100.00;100021.63;5263673;28;20071;-69
2021/11/03 08:17:08;;;;;;;17.63;14.35;;;;;;;4.30;100.00;100011.25;5265506;28;20056;-69
2021/11/03 08:19:42;;;;;;;18.83;14.60;;;;;;;4.33;100.00;100010.19;5260648;28;20036;-69
2021/11/03 08:22:19;;;;;;;18.08;14.45;;;;;;;4.35;100.00;100013.50;5263073;28;20025;-68
2021/11/03 08:24:55;;;;;;;18.90;15.65;;;;;;;4.47;100.00;100001.41;5267537;28;20047;-69
2021/11/03 08:27:26;;;;;;;18.48;15.35;;;;;;;4.47;100.00;100016.97;5266361;28;20032;-69
2021/11/03 08:29:58;;;;;;;17.52;15.57;;;;;;;4.48;100.00;100014.28;5263835;28;20024;-69
2021/11/03 08:32:35;;;;;;;18.15;16.23;;;;;;;4.60;100.00;100018.56;5265127;28;20044;-69
2021/11/03 08:35:09;;;;;;;18.13;16.23;;;;;;;4.58;100.00;100017.00;5265568;28;20162;-69
2021/11/03 08:37:41;;;;;;;23.27;16.53;;;;;;;4.59;100.00;100023.88;5262547;28;20035;-69
2021/11/03 08:40:15;;;;;;;17.98;16.13;;;;;;;4.67;100.00;100029.31;5262352;28;20029;-72
2021/11/03 08:42:48;;;;;;;19.23;16.48;;;;;;;4.69;100.00;100030.03;5263317;28;20029;-69
2021/11/03 08:45:22;;;;;;;22.65;16.92;;;;;;;4.71;100.00;100035.13;5266347;28;20036;-70
2021/11/03 08:47:54;;;;;;;19.85;17.23;;;;;;;4.77;100.00;100032.06;5263010;28;20032;-70
2021/11/03 08:50:29;;;;;;;20.52;16.75;;;;;;;4.83;100.00;100027.25;5267021;28;20477;-69
2021/11/03 08:53:00;;;;;;;19.23;17.27;;;;;;;4.85;100.00;100024.56;5263200;28;20132;-69
2021/11/03 08:55:32;;;;;;;20.70;17.30;;;;;;;4.89;100.00;100033.78;5265364;28;20036;-70
2021/11/03 08:58:08;;;;;;;19.60;17.35;;;;;;;4.95;100.00;100035.88;5266244;28;20052;-69
2021/11/03 09:00:41;;;;;;;19.48;17.48;;;;;;;4.88;100.00;100030.31;5264935;28;20035;-69
2021/11/03 09:03:13;;;;;;;21.20;16.83;;;;;;;5.02;100.00;100033.69;5258952;28;20032;-70
2021/11/03 09:05:48;;;;;;;22.33;17.92;;;;;;;5.16;100.00;100041.25;5262619;28;20033;-69
2021/11/03 09:08:21;;;;;;;20.77;16.88;;;;;;;5.18;100.00;100044.56;5260443;28;20031;-70
2021/11/03 09:10:55;;;;;;;20.07;16.87;;;;;;;5.23;100.00;100044.25;5267522;28;20116;-70
2021/11/03 09:13:29;;;;;;;20.40;18.33;;;;;;;5.31;100.00;100041.88;5262723;28;20055;-70
2021/11/03 09:16:02;;;;;;;21.08;18.02;;;;;;;5.35;100.00;100053.69;5264311;28;20037;-69
2021/11/03 09:18:34;;;;;;;23.10;19.00;;;;;;;5.45;100.00;100049.44;5262857;28;20039;-69
2021/11/03 09:21:08;;;;;;;22.45;18.20;;;;;;;5.49;100.00;100045.69;5265476;28;20479;-69
2021/11/03 09:23:39;;;;;;;21.95;19.42;;;;;;;5.56;100.00;100043.41;5263881;28;20036;-69
2021/11/03 09:26:11;;;;;;;23.55;19.05;;;;;;;5.62;100.00;100032.56;5262332;28;20105;-70
2021/11/03 09:28:42;;;;;;;23.23;19.20;;;;;;;5.69;100.00;100038.13;5263724;28;20025;-69
2021/11/03 09:31:14;;;;;;;20.40;17.88;;;;;;;5.78;100.00;100038.22;5261807;28;20080;-69
2021/11/03 09:33:45;;;;;;;20.95;18.40;;;;;;;5.84;100.00;100040.34;5263892;28;20025;-69
2021/11/03 09:36:20;;;;;;;19.90;17.42;;;;;;;5.92;100.00;100037.19;5265702;28;20033;-70
2021/11/03 09:38:52;;;;;;;21.85;19.38;;;;;;;5.99;100.00;100046.16;5260407;28;20052;-69
2021/11/03 09:41:28;;;;;;;24.80;18.63;;;;;;;6.12;100.00;100032.19;5259289;28;20029;-70
2021/11/03 09:44:23;;;;;;;23.33;19.58;;;;;;;6.24;100.00;100034.63;5260493;28;20029;-69
2021/11/03 09:46:59;;;;;;;23.33;20.83;;;;;;;6.28;100.00;100038.63;5243118;28;20056;-69
2021/11/03 09:49:37;;;;;;;21.58;19.15;;;;;;;6.38;100.00;100037.94;5262289;28;20029;-73
2021/11/03 09:52:27;;;;;;;22.27;19.17;;;;;;;6.55;100.00;100042.59;5263218;28;20136;-72
2021/11/03 09:55:20;;;;;;;20.00;17.73;;;;;;;6.61;100.00;100042.09;5262806;28;20027;-72
2021/11/03 09:57:59;;;;;;;20.70;17.30;;;;;;;6.56;100.00;100039.88;5259849;28;20302;-72
2021/11/03 10:00:42;;;;;;;20.13;18.00;;;;;;;6.58;100.00;100042.34;5255668;28;20086;-73
2021/11/03 10:03:33;;;;;;;20.95;18.75;;;;;;;6.69;100.00;100047.50;5255902;28;20029;-73
2021/11/03 10:06:21;;;;;;;21.77;18.08;;;;;;;6.74;100.00;100040.16;5256515;28;20064;-69
2021/11/03 10:08:54;;;;;;;19.73;17.35;;;;;;;6.73;100.00;100048.06;5261418;28;20044;-69
2021/11/03 10:11:31;;;;;;;19.85;17.85;;;;;;;6.80;100.00;100051.84;5259397;28;20131;-70
2021/11/03 10:14:04;;;;;;;20.20;16.92;;;;;;;6.78;100.00;100054.56;5259192;28;20068;-69
2021/11/03 10:16:38;;;;;;;17.52;15.80;;;;;;;6.80;100.00;100057.03;5260769;28;20093;-69
2021/11/03 10:19:10;;;;;;;22.02;15.90;;;;;;;6.81;100.00;100064.72;5263695;28;20025;-70
2021/11/03 10:21:46;;;;;;;20.08;16.45;;;;;;;6.94;100.00;100056.75;5264793;28;20044;-71
2021/11/03 10:24:19;;;;;;;20.63;17.25;;;;;;;6.95;100.00;100066.22;5253759;28;20051;-70
2021/11/03 10:26:50;;;;;;;18.20;15.57;;;;;;;7.02;100.00;100061.31;5261682;28;20036;-71
2021/11/03 10:29:30;;;;;;;17.60;15.70;;;;;;;7.16;100.00;100066.22;5264193;28;20397;-72
2021/11/03 10:32:08;;;;;;;19.88;17.40;;;;;;;7.28;100.00;100061.78;5260491;28;20303;-71
2021/11/03 10:34:39;;;;;;;18.88;15.68;;;;;;;7.23;100.00;100058.72;5260626;28;20653;-71
2021/11/03 10:37:16;;;;;;;17.37;15.57;;;;;;;7.28;100.00;100056.56;5261900;28;20025;-70
2021/11/03 10:40:00;;;;;;;20.20;16.55;;;;;;;7.41;100.00;100064.16;5263886;28;20037;-70
2021/11/03 10:42:47;;;;;;;17.58;15.80;;;;;;;7.43;100.00;100062.28;5260300;28;20139;-71
2021/11/03 10:45:24;;;;;;;19.83;16.77;;;;;;;7.52;100.00;100057.09;5264795;28;20037;-71
2021/11/03 10:48:10;;;;;;;20.15;16.60;;;;;;;7.64;100.00;100052.63;5260816;28;20062;-71
2021/11/03 10:50:56;;;;;;;18.00;16.13;;;;;;;7.73;100.00;100051.03;5242749;28;20028;-70
2021/11/03 10:53:29;;;;;;;18.73;16.77;;;;;;;7.63;100.00;100056.19;5260119;28;20040;-70
2021/11/03 10:56:07;;;;;;;20.42;17.50;;;;;;;7.67;100.00;100043.72;5264240;28;20104;-72
2021/11/03 10:58:56;;;;;;;20.42;17.42;;;;;;;7.86;100.00;100050.78;5261767;28;20032;-71
2021/11/03 11:01:30;;;;;;;18.85;16.63;;;;;;;7.76;100.00;100045.53;5256973;28;20045;-71
2021/11/03 11:04:12;;;;;;;21.70;17.23;;;;;;;7.89;100.00;100045.31;5260647;28;20035;-71
2021/11/03 11:06:46;;;;;;;20.10;17.50;;;;;;;7.91;100.00;100043.38;5261933;28;20104;-71
2021/11/03 11:09:36;;;;;;;20.83;17.38;;;;;;;8.00;100.00;100046.03;5261653;28;20031;-71
2021/11/03 11:12:26;;;;;;;22.98;19.42;;;;;;;8.06;100.00;100042.06;5263945;28;20028;-71
2021/11/03 11:15:19;;;;;;;27.25;20.73;;;;;;;8.13;100.00;100040.56;5262869;28;20103;-71
2021/11/03 11:18:07;;;;;;;27.17;22.70;;;;;;;8.15;100.00;100038.66;5258601;28;20075;-70
2021/11/03 11:20:44;;;;;;;31.00;25.80;;;;;;;8.12;100.00;100035.50;5261490;28;20156;-71
2021/11/03 11:23:20;;;;;;;33.13;26.45;;;;;;;8.16;100.00;100029.88;5262254;28;20077;-71
2021/11/03 11:26:04;;;;;;;30.40;25.40;;;;;;;8.25;100.00;100030.84;5267699;28;20045;-70
2021/11/03 11:28:51;;;;;;;27.92;23.52;;;;;;;8.29;100.00;100033.03;5265344;28;20032;-71
2021/11/03 11:31:29;;;;;;;28.60;22.90;;;;;;;8.36;100.00;100035.09;5259658;28;20072;-71
2021/11/03 11:34:06;;;;;;;32.53;24.63;;;;;;;8.30;100.00;100036.50;5264889;28;20365;-71
2021/11/03 11:36:48;;;;;;;33.25;27.83;;;;;;;8.35;100.00;100042.13;5266107;28;20087;-70
2021/11/03 11:39:31;;;;;;;39.28;30.38;;;;;;;8.51;100.00;100039.00;5267296;28;20028;-71
2021/11/03 11:42:13;;;;;;;42.22;32.40;;;;;;;8.49;100.00;100038.31;5266794;28;20024;-71
2021/11/03 11:44:59;;;;;;;44.33;32.70;;;;;;;8.57;100.00;100040.25;5281144;28;20032;-71
2021/11/03 11:47:37;;;;;;;37.17;28.60;;;;;;;8.49;100.00;100041.75;5246522;28;20031;-71